Kennebunkport, Maine
Current Conditions -  °F | °C
As of 5:15 PM on Thursday 18 Dec 2014 (Local Time) from KSFM Reporting Station
Broken Clouds Broken Clouds  
Wind Chill: 27°   Ceiling: 4800
Heat Index: 36°   Visibility: 10mi
Dew Point: 23°   Wind: 13mph
Humidity: 60%   Direction: 280°W
Pressure: 29.77"   Gusts: 18mph
Location:  43.36°N, 70.48°W
Report Text: KSFM 182215Z AUTO 28011G16KT 10SM BKN048 BKN120 02/M05 A2977 RMK AO1
Loading
Personal Weather Stations






























Interactive Weather Map New forecast layout! Learn more

10-Day Weather Forecast

Advertisements
Track Severe Weather on mobile